createdAt,value
2019-05-17T00:02:22.649Z,68.37
2019-05-17T00:05:28.203Z,69.04
2019-05-17T00:08:34.942Z,70.32
2019-05-17T00:11:39.645Z,70.73
2019-05-17T00:14:44.399Z,70.74
2019-05-17T00:17:49.586Z,70.24
2019-05-17T00:20:56.987Z,70.41
2019-05-17T00:24:01.949Z,70.28
2019-05-17T00:27:07.259Z,71.06
2019-05-17T00:30:12.649Z,71.94
2019-05-17T00:33:17.726Z,72.57
2019-05-17T00:36:22.470Z,72.85
2019-05-17T00:39:27.817Z,73.75
2019-05-17T00:42:32.946Z,73.99
2019-05-17T00:45:38.515Z,73.96
2019-05-17T00:48:43.504Z,74.07
2019-05-17T00:51:48.267Z,74.32
2019-05-17T00:54:52.987Z,74.24
2019-05-17T00:58:01.259Z,74.03
2019-05-17T01:01:08.432Z,74.55
2019-05-17T01:04:13.336Z,74.31
2019-05-17T01:07:18.097Z,74.98
2019-05-17T01:10:23.312Z,75.42
2019-05-17T01:13:28.783Z,75.98
2019-05-17T01:16:33.539Z,76.71
2019-05-17T01:19:41.113Z,77.06
2019-05-17T01:22:47.404Z,77.01
2019-05-17T01:25:52.447Z,77.28
2019-05-17T01:28:57.739Z,76.98
2019-05-17T01:32:02.856Z,76.60
2019-05-17T01:35:08.301Z,76.47
2019-05-17T01:38:13.033Z,77.21
2019-05-17T01:41:17.885Z,77.09
2019-05-17T01:44:22.614Z,77.27
2019-05-17T01:47:27.438Z,77.56
2019-05-17T01:50:32.181Z,77.62
2019-05-17T01:53:38.034Z,77.84
2019-05-17T01:56:46.177Z,77.26
2019-05-17T01:59:50.932Z,76.81
2019-05-17T02:02:57.719Z,77.70
2019-05-17T02:06:02.649Z,78.44
2019-05-17T02:09:07.755Z,78.94
2019-05-17T02:12:12.476Z,79.00
2019-05-17T02:15:18.086Z,79.06
2019-05-17T02:18:22.879Z,79.05
2019-05-17T02:21:27.650Z,78.48
2019-05-17T02:24:32.540Z,79.16
2019-05-17T02:27:41.266Z,79.74
2019-05-17T02:30:45.718Z,80.17
2019-05-17T02:33:53.403Z,79.68
2019-05-17T02:36:57.189Z,80.03
2019-05-17T02:40:07.706Z,79.89
2019-05-17T02:43:09.144Z,79.84
2019-05-17T02:46:13.946Z,80.17
2019-05-17T02:49:19.025Z,80.33
2019-05-17T02:52:25.046Z,79.68
2019-05-17T02:55:32.248Z,79.65
2019-05-17T02:58:36.224Z,79.28
2019-05-17T03:01:44.167Z,79.58
2019-05-17T03:04:48.190Z,78.88
2019-05-17T03:07:53.090Z,79.08
2019-05-17T03:10:57.918Z,78.77
2019-05-17T03:14:04.239Z,79.18
2019-05-17T03:17:09.972Z,79.52
2019-05-17T03:20:15.341Z,80.89
2019-05-17T03:23:23.194Z,81.89
2019-05-17T03:26:26.662Z,80.37
2019-05-17T03:29:33.447Z,81.39
2019-05-17T03:32:46.447Z,80.74
2019-05-17T03:35:47.343Z,81.98
2019-05-17T03:38:53.410Z,82.81
2019-05-17T03:41:58.912Z,83.39
2019-05-17T03:45:03.886Z,82.31
2019-05-17T03:48:08.738Z,83.33
2019-05-17T03:51:13.537Z,83.10
2019-05-17T03:54:22.434Z,82.01
2019-05-17T03:57:26.162Z,82.56
2019-05-17T04:00:34.862Z,82.40
2019-05-17T04:03:37.601Z,81.89
2019-05-17T04:06:43.589Z,81.57
2019-05-17T04:09:49.109Z,81.54
2019-05-17T04:12:53.951Z,81.17
2019-05-17T04:15:58.724Z,82.21
2019-05-17T04:19:03.764Z,82.64
2019-05-17T04:22:08.600Z,81.44
2019-05-17T04:25:14.436Z,81.56
2019-05-17T04:28:22.640Z,81.39
2019-05-17T04:31:26.127Z,81.58
2019-05-17T04:34:33.571Z,81.43
2019-05-17T04:37:38.685Z,80.70
2019-05-17T04:40:43.750Z,81.03
2019-05-17T04:43:48.485Z,81.43
2019-05-17T04:46:54.614Z,81.10
2019-05-17T04:49:59.413Z,80.82
2019-05-17T04:53:04.365Z,80.73
2019-05-17T04:56:09.419Z,80.32
2019-05-17T04:59:15.327Z,79.96
2019-05-17T05:02:23.398Z,78.29
2019-05-17T05:05:26.581Z,78.89
2019-05-17T05:08:33.028Z,79.71
2019-05-17T05:11:51.928Z,78.83
2019-05-17T05:14:44.313Z,77.66
2019-05-17T05:17:49.067Z,77.21
2019-05-17T05:20:54.891Z,76.80
2019-05-17T05:24:02.323Z,76.56
2019-05-17T05:27:06.800Z,76.34
2019-05-17T05:30:12.614Z,75.21
2019-05-17T05:33:18.093Z,75.06
2019-05-17T05:36:23.103Z,74.67
2019-05-17T05:39:27.873Z,74.26
2019-05-17T05:42:32.740Z,74.59
2019-05-17T05:45:37.803Z,74.28
2019-05-17T05:48:42.947Z,74.30
2019-05-17T05:51:48.707Z,74.74
2019-05-17T05:54:53.773Z,74.76
2019-05-17T05:57:58.547Z,74.20
2019-05-17T06:01:03.536Z,75.16
2019-05-17T06:04:08.377Z,75.44
2019-05-17T06:07:13.519Z,75.27
2019-05-17T06:10:18.747Z,73.79
2019-05-17T06:13:23.890Z,73.96
2019-05-17T06:16:28.707Z,73.16
2019-05-17T06:19:33.487Z,72.65
2019-05-17T06:22:38.232Z,71.83
2019-05-17T06:25:43.992Z,71.59
2019-05-17T06:28:48.933Z,71.15
2019-05-17T06:31:54.021Z,70.48
2019-05-17T06:40:32.312Z,70.10
2019-05-17T06:43:41.490Z,69.61
2019-05-17T06:46:47.860Z,69.13
2019-05-17T06:49:53.969Z,69.11
2019-05-17T06:53:02.910Z,69.05
2019-05-17T06:56:07.081Z,68.47
2019-05-17T06:59:12.163Z,67.87
2019-05-17T07:02:20.786Z,67.70
2019-05-17T07:05:29.683Z,67.04
2019-05-17T07:08:40.223Z,66.33
2019-05-17T07:12:30.668Z,66.14
2019-05-17T07:15:47.939Z,64.56
2019-05-17T07:19:35.204Z,64.41
2019-05-17T07:26:12.755Z,64.24
2019-05-17T07:29:19.409Z,64.46
2019-05-17T07:32:24.307Z,64.13
2019-05-17T07:35:30.034Z,63.01
2019-05-17T07:38:35.317Z,62.65
2019-05-17T07:41:45.746Z,61.40
2019-05-17T07:44:57.021Z,60.02
2019-05-17T07:48:03.101Z,59.75
2019-05-17T07:51:10.128Z,57.84
2019-05-17T07:54:19.694Z,58.09
2019-05-17T07:57:24.871Z,57.14
2019-05-17T08:00:51.427Z,57.48
2019-05-17T08:04:02.355Z,57.48
2019-05-17T08:07:10.411Z,55.34
2019-05-17T08:10:23.882Z,55.16
2019-05-17T08:13:39.853Z,55.57
2019-05-17T08:16:46.446Z,55.52
2019-05-17T08:19:51.306Z,55.52
2019-05-17T08:23:05.124Z,55.03
2019-05-17T08:26:13.837Z,55.03
2019-05-17T08:29:30.511Z,57.14
2019-05-17T08:33:02.704Z,57.87
2019-05-17T08:36:23.050Z,57.91
2019-05-17T08:40:01.284Z,58.04
2019-05-17T08:43:16.491Z,57.31
2019-05-17T08:46:27.004Z,57.35
2019-05-17T08:49:35.126Z,57.28
2019-05-17T08:52:50.415Z,57.44
2019-05-17T08:56:01.923Z,58.30
2019-05-17T08:59:09.431Z,56.64
2019-05-17T09:02:14.700Z,56.64
2019-05-17T09:05:30.078Z,54.34
2019-05-17T09:08:34.241Z,52.80
2019-05-17T09:11:39.614Z,53.49
2019-05-17T09:14:44.879Z,51.91
2019-05-17T09:17:50.029Z,51.84
2019-05-17T09:21:21.702Z,51.48
2019-05-17T09:24:26.838Z,51.73
2019-05-17T09:27:31.953Z,52.54
2019-05-17T09:30:36.889Z,51.71
2019-05-17T09:33:49.721Z,49.16
2019-05-17T09:36:54.784Z,48.17
2019-05-17T09:40:00.093Z,48.84
2019-05-17T09:43:05.898Z,49.09
2019-05-17T09:46:11.143Z,47.57
2019-05-17T09:49:27.288Z,46.87
2019-05-17T09:52:33.187Z,45.82
2019-05-17T09:55:39.774Z,46.70
2019-05-17T09:58:44.800Z,46.99
2019-05-17T10:05:31.309Z,46.03
2019-05-17T10:08:38.929Z,46.42
2019-05-17T10:11:55.602Z,46.61
2019-05-17T10:15:04.501Z,46.39
2019-05-17T10:18:46.875Z,45.78
2019-05-17T10:29:55.420Z,45.79
2019-05-17T10:33:15.069Z,44.48
2019-05-17T10:36:34.966Z,44.72
2019-05-17T10:39:57.742Z,44.48
2019-05-17T10:43:22.726Z,44.09
2019-05-17T10:47:19.501Z,44.10
2019-05-17T10:51:09.652Z,43.82
2019-05-17T10:54:20.694Z,43.96
2019-05-17T10:57:32.294Z,44.16
2019-05-17T11:00:41.180Z,43.43
2019-05-17T11:03:50.252Z,43.58
2019-05-17T11:07:38.092Z,44.48
2019-05-17T11:10:44.949Z,43.54
2019-05-17T11:13:53.814Z,42.86
2019-05-17T11:17:02.685Z,41.77
2019-05-17T11:24:05.678Z,41.68
2019-05-17T11:27:10.682Z,41.72
2019-05-17T11:30:15.993Z,41.34
2019-05-17T11:33:20.721Z,43.33
2019-05-17T11:36:25.722Z,43.37
2019-05-17T11:39:30.731Z,43.67
2019-05-17T11:42:35.824Z,42.65
2019-05-17T11:45:40.797Z,42.25
2019-05-17T11:48:45.565Z,41.91
2019-05-17T11:51:50.304Z,41.44
2019-05-17T11:54:55.207Z,40.40
2019-05-17T11:57:59.926Z,40.08
2019-05-17T12:01:04.977Z,38.87
2019-05-17T12:04:10.068Z,39.50
2019-05-17T12:07:14.998Z,39.99
2019-05-17T12:10:20.069Z,40.00
2019-05-17T12:13:25.260Z,39.83
2019-05-17T12:16:30.373Z,39.68
2019-05-17T12:19:37.276Z,40.60
2019-05-17T12:22:42.860Z,40.93
2019-05-17T12:25:47.904Z,39.83
2019-05-17T12:28:53.002Z,39.67
2019-05-17T12:31:58.018Z,38.54
2019-05-17T12:35:03.395Z,39.30
2019-05-17T12:38:08.372Z,39.67
2019-05-17T12:41:13.123Z,38.58
2019-05-17T12:44:17.872Z,37.86
2019-05-17T12:47:22.601Z,39.78
2019-05-17T12:50:27.359Z,38.41
2019-05-17T12:53:32.369Z,38.35
2019-05-17T12:56:37.139Z,37.56
2019-05-17T12:59:41.865Z,37.63
2019-05-17T13:02:46.616Z,37.48
2019-05-17T13:05:51.416Z,38.56
2019-05-17T13:08:56.471Z,39.02
2019-05-17T13:12:01.203Z,39.71
2019-05-17T13:15:06.670Z,38.40
2019-05-17T13:18:11.690Z,38.63
2019-05-17T13:21:16.803Z,37.31
2019-05-17T13:24:21.609Z,37.05
2019-05-17T13:27:27.561Z,36.72
2019-05-17T13:30:32.754Z,36.63
2019-05-17T13:33:37.821Z,37.48
2019-05-17T13:36:42.625Z,38.19
2019-05-17T13:39:47.813Z,37.00
2019-05-17T13:42:53.004Z,37.27
2019-05-17T13:45:57.793Z,35.71
2019-05-17T13:49:03.778Z,35.04
2019-05-17T13:52:08.634Z,34.36
2019-05-17T13:55:13.822Z,34.18
2019-05-17T13:58:18.666Z,35.22
2019-05-17T14:01:23.418Z,35.00
2019-05-17T14:04:28.501Z,34.96
2019-05-17T14:07:33.273Z,35.27
2019-05-17T14:10:38.033Z,35.98
2019-05-17T14:13:42.747Z,35.48
2019-05-17T14:16:47.519Z,34.91
2019-05-17T14:19:52.566Z,35.31
2019-05-17T14:22:58.177Z,36.75
2019-05-17T14:26:03.379Z,36.13
2019-05-17T14:29:08.467Z,36.56
2019-05-17T14:32:14.258Z,36.38
2019-05-17T14:35:19.699Z,37.16
2019-05-17T14:38:24.460Z,37.50
2019-05-17T14:41:29.591Z,37.77
2019-05-17T14:44:34.418Z,37.94
2019-05-17T14:47:39.416Z,36.43
2019-05-17T14:50:44.170Z,36.59
2019-05-17T14:53:49.348Z,36.18
2019-05-17T14:56:54.288Z,35.94
2019-05-17T14:59:59.622Z,35.00
2019-05-17T15:03:07.456Z,35.53
2019-05-17T15:06:11.236Z,35.77
2019-05-17T15:09:15.997Z,35.54
2019-05-17T15:12:28.158Z,34.77
2019-05-17T15:15:28.057Z,34.56
2019-05-17T15:18:33.143Z,34.69
2019-05-17T15:21:38.129Z,34.56
2019-05-17T15:24:42.942Z,35.25
2019-05-17T15:27:47.904Z,34.37
2019-05-17T15:30:52.723Z,33.86
2019-05-17T15:33:57.558Z,33.50
2019-05-17T15:37:02.363Z,33.63
2019-05-17T15:40:07.701Z,33.56
2019-05-17T15:43:12.773Z,34.41
2019-05-17T15:46:17.603Z,34.02
2019-05-17T15:49:22.809Z,33.49
2019-05-17T15:52:27.577Z,32.54
2019-05-17T15:55:32.477Z,34.43
2019-05-17T15:58:37.490Z,34.26
2019-05-17T16:01:42.586Z,34.53
2019-05-17T16:04:47.576Z,34.49
2019-05-17T16:07:53.705Z,34.62
2019-05-17T16:10:58.602Z,35.20
2019-05-17T16:14:04.093Z,35.24
2019-05-17T16:17:08.932Z,35.11
2019-05-17T16:20:16.725Z,35.10
2019-05-17T16:23:23.833Z,36.24
2019-05-17T16:26:28.699Z,36.24
2019-05-17T16:29:33.726Z,36.65
2019-05-17T16:32:38.863Z,35.38
2019-05-17T16:35:43.912Z,34.69
2019-05-17T16:38:49.582Z,35.32
2019-05-17T16:41:54.487Z,36.36
2019-05-17T16:44:59.275Z,36.52
2019-05-17T16:48:04.417Z,36.48
2019-05-17T16:51:09.480Z,36.75
2019-05-17T16:54:14.343Z,37.56
2019-05-17T16:57:19.176Z,37.42
2019-05-17T17:00:33.658Z,37.84
2019-05-17T17:03:44.152Z,38.33
2019-05-17T17:06:46.382Z,38.47
2019-05-17T17:09:51.234Z,38.54
2019-05-17T17:12:56.144Z,38.55
2019-05-17T17:16:00.969Z,39.20
2019-05-17T17:19:07.670Z,39.01
2019-05-17T17:22:12.924Z,39.64
2019-05-17T17:25:17.905Z,39.81
2019-05-17T17:28:25.512Z,40.11
2019-05-17T17:31:29.795Z,40.51
2019-05-17T17:34:34.934Z,42.61
2019-05-17T17:37:39.789Z,43.54
2019-05-17T17:40:44.579Z,46.33
2019-05-17T17:43:57.917Z,48.16
2019-05-17T17:47:00.562Z,50.04
2019-05-17T17:50:05.961Z,50.66
2019-05-17T17:53:10.873Z,50.36
2019-05-17T17:56:15.942Z,51.15
2019-05-17T17:59:21.073Z,51.45
2019-05-17T18:02:25.905Z,51.32
2019-05-17T18:05:30.732Z,51.01
2019-05-17T18:08:35.795Z,51.73
2019-05-17T18:11:40.991Z,53.15
2019-05-17T18:14:45.805Z,54.78
2019-05-17T18:17:50.620Z,55.73
2019-05-17T18:20:55.999Z,56.03
2019-05-17T18:24:01.377Z,55.52
2019-05-17T18:27:06.379Z,55.83
2019-05-17T18:30:11.611Z,55.35
2019-05-17T18:33:16.351Z,54.83
2019-05-17T18:36:21.238Z,54.50
2019-05-17T18:39:26.081Z,53.93
2019-05-17T18:42:30.984Z,53.83
2019-05-17T18:45:36.269Z,53.54
2019-05-17T18:48:41.258Z,53.63
2019-05-17T18:51:46.138Z,53.33
2019-05-17T18:54:51.662Z,53.67
2019-05-17T18:57:56.644Z,53.40
2019-05-17T19:01:02.093Z,53.44
2019-05-17T19:04:07.402Z,53.67
2019-05-17T19:07:12.287Z,53.61
2019-05-17T19:10:17.373Z,53.62
2019-05-17T19:13:25.127Z,54.13
2019-05-17T19:16:30.297Z,53.44
2019-05-17T19:19:36.556Z,53.79
2019-05-17T19:22:41.465Z,53.90
2019-05-17T19:25:46.549Z,53.84
2019-05-17T19:28:54.369Z,53.82
2019-05-17T19:31:59.187Z,53.83
2019-05-17T19:35:04.310Z,53.51
2019-05-17T19:38:09.517Z,53.86
2019-05-17T19:41:14.811Z,55.02
2019-05-17T19:44:21.383Z,55.83
2019-05-17T19:47:26.190Z,57.17
2019-05-17T19:50:31.630Z,58.32
2019-05-17T19:53:36.493Z,58.74
2019-05-17T19:56:41.393Z,58.71
2019-05-17T19:59:46.249Z,60.42
2019-05-17T20:02:52.120Z,60.53
2019-05-17T20:05:57.261Z,61.24
2019-05-17T20:09:02.152Z,61.41
2019-05-17T20:12:08.726Z,62.60
2019-05-17T20:15:17.931Z,62.79
2019-05-17T20:18:20.354Z,62.98
2019-05-17T20:21:25.450Z,63.90
2019-05-17T20:24:30.605Z,63.83
2019-05-17T20:27:35.399Z,64.03
2019-05-17T20:30:40.578Z,63.66
2019-05-17T20:33:45.893Z,62.77
2019-05-17T20:36:50.925Z,63.25
2019-05-17T20:39:56.143Z,64.33
2019-05-17T20:43:00.963Z,64.47
2019-05-17T20:46:05.910Z,65.83
2019-05-17T20:49:11.187Z,66.15
2019-05-17T20:52:16.559Z,66.00
2019-05-17T20:55:23.307Z,66.67
2019-05-17T20:58:28.579Z,66.18
2019-05-17T21:01:33.346Z,66.18
2019-05-17T21:04:38.188Z,65.56
2019-05-17T21:07:43.161Z,66.94
2019-05-17T21:10:47.967Z,66.93
2019-05-17T21:13:52.763Z,66.95
2019-05-17T21:16:57.624Z,67.48
2019-05-17T21:20:02.543Z,67.76
2019-05-17T21:23:07.877Z,67.80
2019-05-17T21:26:12.724Z,67.25
2019-05-17T21:29:17.562Z,66.67
2019-05-17T21:32:22.284Z,67.62
2019-05-17T21:35:27.425Z,68.20
2019-05-17T21:38:35.676Z,68.92
2019-05-17T21:41:40.461Z,68.92
2019-05-17T21:44:45.225Z,69.05
2019-05-17T21:47:50.335Z,68.90
2019-05-17T21:50:55.103Z,68.90
2019-05-17T21:53:59.895Z,70.02
2019-05-17T21:57:04.922Z,71.15
2019-05-17T22:00:12.711Z,71.15
2019-05-17T22:03:22.520Z,71.06
2019-05-17T22:06:27.675Z,70.98
2019-05-17T22:09:32.560Z,71.87
2019-05-17T22:12:37.534Z,71.18
2019-05-17T22:15:42.972Z,70.96
2019-05-17T22:18:47.801Z,70.79
2019-05-17T22:21:52.648Z,70.21
2019-05-17T22:24:57.399Z,70.63
2019-05-17T22:28:02.187Z,71.42
2019-05-17T22:31:07.297Z,70.84
2019-05-17T22:34:12.125Z,71.14
2019-05-17T22:37:17.744Z,71.27
2019-05-17T22:40:22.514Z,71.15
2019-05-17T22:43:27.593Z,70.93
2019-05-17T22:46:36.458Z,71.96
2019-05-17T22:49:40.302Z,72.07
2019-05-17T22:52:46.274Z,72.31
2019-05-17T22:55:51.022Z,71.47
2019-05-17T22:58:56.475Z,71.47
2019-05-17T23:02:01.347Z,71.93
2019-05-17T23:05:06.543Z,71.11
2019-05-17T23:08:11.378Z,72.44
2019-05-17T23:11:16.159Z,72.49
2019-05-17T23:14:21.258Z,72.37
2019-05-17T23:17:26.342Z,72.37
2019-05-17T23:20:31.413Z,72.46
2019-05-17T23:23:36.668Z,73.12
2019-05-17T23:26:41.432Z,73.61
2019-05-17T23:29:46.520Z,72.37
2019-05-17T23:32:51.261Z,72.37
2019-05-17T23:35:56.584Z,72.36
2019-05-17T23:39:01.501Z,71.73
2019-05-17T23:42:07.867Z,71.37
2019-05-17T23:45:12.974Z,71.37
2019-05-17T23:48:17.743Z,70.26
2019-05-17T23:51:22.560Z,70.26
2019-05-17T23:54:27.602Z,70.63
2019-05-17T23:57:32.480Z,71.10
